createdAt,value
2019-06-26T00:00:15.817Z,1.700
2019-06-26T00:03:15.882Z,2.238
2019-06-26T00:06:15.678Z,1.863
2019-06-26T00:09:15.566Z,2.150
2019-06-26T00:12:15.355Z,2.588
2019-06-26T00:15:15.011Z,1.713
2019-06-26T00:18:15.790Z,3.663
2019-06-26T00:21:15.421Z,2.150
2019-06-26T00:24:15.026Z,1.038
2019-06-26T00:27:15.455Z,1.288
2019-06-26T00:30:14.994Z,2.300
2019-06-26T00:33:15.631Z,1.938
2019-06-26T00:36:15.204Z,2.600
2019-06-26T00:39:15.733Z,2.487
2019-06-26T00:42:14.990Z,2.375
2019-06-26T00:45:15.419Z,2.800
2019-06-26T00:48:15.914Z,2.675
2019-06-26T00:51:15.506Z,2.638
2019-06-26T00:54:15.051Z,2.088
2019-06-26T00:57:15.620Z,2.875
2019-06-26T01:00:15.130Z,1.913
2019-06-26T01:03:15.608Z,2.763
2019-06-26T01:06:15.271Z,2.275
2019-06-26T01:09:15.329Z,2.862
2019-06-26T01:12:15.014Z,2.050
2019-06-26T01:15:15.614Z,2.775
2019-06-26T01:18:15.244Z,3.663
2019-06-26T01:21:15.777Z,5.938
2019-06-26T01:24:15.213Z,3.088
2019-06-26T01:27:15.735Z,3.013
2019-06-26T01:30:15.298Z,3.388
2019-06-26T01:33:15.066Z,5.512
2019-06-26T01:36:15.653Z,2.212
2019-06-26T01:39:15.200Z,1.888
2019-06-26T01:42:15.749Z,3.112
2019-06-26T01:45:15.314Z,2.987
2019-06-26T01:48:14.937Z,3.300
2019-06-26T01:51:15.435Z,4.537
2019-06-26T01:54:15.898Z,4.763
2019-06-26T01:57:15.422Z,3.138
2019-06-26T02:00:15.107Z,2.775
2019-06-26T02:03:15.836Z,7.475
2019-06-26T02:06:15.488Z,1.438
2019-06-26T02:09:14.962Z,2.975
2019-06-26T02:12:15.500Z,2.862
2019-06-26T02:15:15.077Z,5.913
2019-06-26T02:18:15.767Z,3.212
2019-06-26T02:21:15.489Z,4.650
2019-06-26T02:24:15.004Z,1.788
2019-06-26T02:27:15.467Z,2.800
2019-06-26T02:30:15.076Z,2.675
2019-06-26T02:33:15.626Z,5.375
2019-06-26T02:36:15.246Z,2.988
2019-06-26T02:39:15.785Z,2.725
2019-06-26T02:42:15.394Z,1.425
2019-06-26T02:45:15.056Z,1.500
2019-06-26T02:48:15.765Z,1.575
2019-06-26T02:51:15.430Z,3.087
2019-06-26T02:54:15.023Z,2.050
2019-06-26T02:57:15.544Z,2.312
2019-06-26T03:00:15.237Z,1.950
2019-06-26T03:03:15.985Z,3.988
2019-06-26T03:06:15.634Z,3.650
2019-06-26T03:09:15.349Z,2.225
2019-06-26T03:12:15.949Z,2.200
2019-06-26T03:15:15.400Z,1.688
2019-06-26T03:18:15.147Z,2.025
2019-06-26T03:21:15.779Z,2.025
2019-06-26T03:24:15.485Z,1.225
2019-06-26T03:27:15.152Z,4.500
2019-06-26T03:30:15.892Z,0.950
2019-06-26T03:33:15.481Z,1.538
2019-06-26T03:36:14.996Z,0.825
2019-06-26T03:39:15.528Z,1.438
2019-06-26T03:42:15.119Z,3.062
2019-06-26T03:45:25.027Z,2.100
2019-06-26T03:48:15.809Z,3.850
2019-06-26T03:51:15.367Z,2.300
2019-06-26T03:54:15.095Z,2.438
2019-06-26T03:57:15.895Z,2.575
2019-06-26T04:00:15.736Z,3.588
2019-06-26T04:03:15.458Z,3.050
2019-06-26T04:06:15.207Z,1.875
2019-06-26T04:09:15.875Z,2.350
2019-06-26T04:12:15.517Z,2.987
2019-06-26T04:15:15.404Z,1.050
2019-06-26T04:18:14.973Z,1.763
2019-06-26T04:21:15.477Z,3.737
2019-06-26T04:24:15.117Z,5.200
2019-06-26T04:27:15.523Z,13.175
2019-06-26T04:30:15.132Z,3.462
2019-06-26T04:33:15.884Z,6.912
2019-06-26T04:36:16.583Z,3.688
2019-06-26T04:39:15.215Z,2.338
2019-06-26T04:42:15.827Z,2.587
2019-06-26T04:45:15.449Z,4.537
2019-06-26T04:48:15.171Z,2.600
2019-06-26T04:51:15.686Z,2.362
2019-06-26T04:54:15.311Z,4.175
2019-06-26T04:57:14.966Z,1.900
2019-06-26T05:00:15.723Z,2.413
2019-06-26T05:03:15.577Z,3.000
2019-06-26T05:06:15.186Z,3.150
2019-06-26T05:09:15.748Z,2.212
2019-06-26T05:12:15.803Z,2.737
2019-06-26T05:15:15.766Z,2.612
2019-06-26T05:18:15.211Z,3.262
2019-06-26T05:21:15.281Z,4.025
2019-06-26T05:24:14.998Z,3.237
2019-06-26T05:27:15.863Z,2.725
2019-06-26T05:30:15.855Z,2.587
2019-06-26T05:33:15.570Z,2.188
2019-06-26T05:36:15.284Z,3.162
2019-06-26T05:39:15.187Z,2.200
2019-06-26T05:42:14.941Z,1.750
2019-06-26T05:45:15.726Z,2.725
2019-06-26T05:48:15.687Z,2.075
2019-06-26T05:51:15.378Z,1.638
2019-06-26T05:54:15.321Z,1.575
2019-06-26T05:57:15.203Z,3.200
2019-06-26T06:00:15.860Z,2.638
2019-06-26T06:03:15.062Z,2.662
2019-06-26T06:06:15.323Z,3.787
2019-06-26T06:09:15.927Z,35.712
2019-06-26T06:12:15.788Z,30.338
2019-06-26T06:15:15.609Z,5.600
2019-06-26T06:18:15.790Z,4.775
2019-06-26T06:21:15.727Z,3.875
2019-06-26T06:24:15.889Z,3.650
2019-06-26T06:27:16.056Z,3.750
2019-06-26T06:30:15.352Z,2.338
2019-06-26T06:33:15.683Z,2.975
2019-06-26T06:36:15.438Z,4.262
2019-06-26T06:39:15.773Z,2.987
2019-06-26T06:42:15.479Z,3.650
2019-06-26T06:45:16.118Z,3.362
2019-06-26T06:48:15.566Z,3.850
2019-06-26T06:51:16.282Z,2.600
2019-06-26T06:54:15.975Z,6.025
2019-06-26T06:57:15.630Z,3.300
2019-06-26T07:00:15.475Z,3.663
2019-06-26T07:03:15.381Z,4.500
2019-06-26T07:06:16.072Z,4.113
2019-06-26T07:09:15.718Z,4.550
2019-06-26T07:12:15.437Z,5.213
2019-06-26T07:15:16.235Z,7.013
2019-06-26T07:18:15.509Z,3.888
2019-06-26T07:21:16.095Z,4.400
2019-06-26T07:24:16.169Z,4.488
2019-06-26T07:27:16.051Z,4.650
2019-06-26T07:30:15.846Z,3.538
2019-06-26T07:33:15.805Z,5.438
2019-06-26T07:36:15.440Z,5.225
2019-06-26T07:39:16.411Z,9.100
2019-06-26T07:42:16.489Z,4.912
2019-06-26T07:45:16.342Z,6.250
2019-06-26T07:48:15.585Z,3.562
2019-06-26T07:51:15.506Z,5.062
2019-06-26T07:54:15.714Z,5.713
2019-06-26T07:57:15.413Z,5.725
2019-06-26T08:00:15.538Z,5.400
2019-06-26T08:03:15.396Z,5.412
2019-06-26T08:06:16.181Z,6.500
2019-06-26T08:09:16.197Z,4.812
2019-06-26T08:12:15.938Z,6.825
2019-06-26T08:15:15.610Z,6.500
2019-06-26T08:18:15.368Z,5.400
2019-06-26T08:21:15.538Z,4.825
2019-06-26T08:24:15.442Z,5.500
2019-06-26T08:27:15.949Z,7.850
2019-06-26T08:30:15.390Z,7.562
2019-06-26T08:33:15.847Z,5.812
2019-06-26T08:36:16.115Z,5.062
2019-06-26T08:39:15.419Z,5.812
2019-06-26T08:42:16.008Z,5.500
2019-06-26T08:45:15.340Z,6.562
2019-06-26T08:48:23.104Z,7.450
2019-06-26T08:51:16.306Z,5.950
2019-06-26T08:54:15.618Z,5.838
2019-06-26T08:57:15.998Z,8.488
2019-06-26T09:00:15.452Z,8.113
2019-06-26T09:03:15.856Z,7.938
2019-06-26T09:06:16.190Z,7.913
2019-06-26T09:09:16.561Z,6.550
2019-06-26T09:12:15.584Z,6.637
2019-06-26T09:15:15.840Z,8.637
2019-06-26T09:18:15.675Z,7.050
2019-06-26T09:21:16.192Z,9.975
2019-06-26T09:24:20.476Z,7.075
2019-06-26T09:27:15.897Z,7.725
2019-06-26T09:30:15.815Z,5.900
2019-06-26T09:33:15.776Z,6.800
2019-06-26T09:36:15.921Z,8.988
2019-06-26T09:39:15.566Z,8.238
2019-06-26T09:42:19.501Z,7.938
2019-06-26T09:45:15.675Z,8.400
2019-06-26T09:48:15.913Z,8.150
2019-06-26T09:51:16.202Z,6.350
2019-06-26T09:54:16.043Z,7.263
2019-06-26T09:57:15.842Z,6.587
2019-06-26T10:00:15.619Z,8.975
2019-06-26T10:03:15.753Z,7.225
2019-06-26T10:06:15.557Z,9.663
2019-06-26T10:09:15.520Z,6.075
2019-06-26T10:12:15.893Z,8.550
2019-06-26T10:15:15.573Z,8.150
2019-06-26T10:18:16.199Z,6.613
2019-06-26T10:21:15.398Z,8.913
2019-06-26T10:24:16.134Z,7.700
2019-06-26T10:27:15.774Z,9.025
2019-06-26T10:30:15.946Z,6.600
2019-06-26T10:33:20.862Z,8.688
2019-06-26T10:36:15.798Z,9.575
2019-06-26T10:39:15.494Z,9.250
2019-06-26T10:42:16.430Z,8.300
2019-06-26T10:45:15.460Z,8.637
2019-06-26T10:48:16.249Z,8.650
2019-06-26T10:51:15.996Z,10.238
2019-06-26T10:54:15.679Z,7.950
2019-06-26T10:57:15.339Z,6.612
2019-06-26T11:00:15.966Z,7.375
2019-06-26T11:03:15.505Z,8.213
2019-06-26T11:06:15.570Z,7.950
2019-06-26T11:09:16.301Z,8.775
2019-06-26T11:12:16.068Z,7.625
2019-06-26T11:15:15.897Z,10.012
2019-06-26T11:18:15.973Z,7.612
2019-06-26T11:21:15.774Z,10.825
2019-06-26T11:24:15.952Z,7.487
2019-06-26T11:27:15.403Z,10.287
2019-06-26T11:30:16.006Z,7.400
2019-06-26T11:33:16.657Z,6.963
2019-06-26T11:36:17.228Z,8.262
2019-06-26T11:39:16.297Z,8.850
2019-06-26T11:42:15.946Z,9.588
2019-06-26T11:45:16.002Z,8.338
2019-06-26T11:48:16.488Z,8.200
2019-06-26T11:51:16.280Z,10.575
2019-06-26T11:54:16.842Z,8.362
2019-06-26T11:57:16.892Z,6.562
2019-06-26T12:00:30.969Z,7.950
2019-06-26T12:03:17.865Z,7.462
2019-06-26T12:06:19.265Z,7.863
2019-06-26T12:09:16.058Z,7.888
2019-06-26T12:12:20.537Z,8.625
2019-06-26T12:15:15.732Z,7.562
2019-06-26T12:24:15.365Z,7.900
2019-06-26T12:27:16.102Z,10.150
2019-06-26T12:30:15.874Z,8.062
2019-06-26T12:33:16.122Z,8.000
2019-06-26T12:36:20.847Z,6.838
2019-06-26T12:39:20.518Z,9.025
2019-06-26T12:42:15.633Z,8.113
2019-06-26T12:45:17.280Z,6.225
2019-06-26T12:48:16.506Z,6.375
2019-06-26T12:51:16.315Z,7.438
2019-06-26T12:54:15.569Z,7.112
2019-06-26T12:57:16.314Z,10.262
2019-06-26T13:00:15.785Z,7.963
2019-06-26T13:03:27.644Z,6.838
2019-06-26T13:06:16.123Z,8.812
2019-06-26T13:09:20.971Z,7.925
2019-06-26T13:12:20.880Z,7.762
2019-06-26T13:15:19.018Z,6.500
2019-06-26T13:18:21.838Z,6.450
2019-06-26T13:21:15.640Z,7.312
2019-06-26T13:24:21.229Z,7.088
2019-06-26T13:27:52.800Z,9.013
2019-06-26T13:30:16.631Z,7.388
2019-06-26T13:33:21.383Z,10.387
2019-06-26T13:36:16.139Z,7.537
2019-06-26T13:39:15.871Z,7.300
2019-06-26T13:42:15.504Z,7.338
2019-06-26T13:45:21.686Z,8.575
2019-06-26T13:48:15.845Z,8.238
2019-06-26T13:51:15.655Z,8.000
2019-06-26T13:54:15.631Z,7.763
2019-06-26T13:57:20.413Z,8.650
2019-06-26T14:00:21.095Z,8.838
2019-06-26T14:03:15.947Z,7.713
2019-06-26T14:06:15.788Z,5.400
2019-06-26T14:09:15.678Z,6.375
2019-06-26T14:12:19.010Z,6.875
2019-06-26T14:15:16.054Z,7.737
2019-06-26T14:18:15.712Z,6.525
2019-06-26T14:21:26.380Z,8.738
2019-06-26T14:24:26.074Z,7.088
2019-06-26T14:27:20.523Z,7.500
2019-06-26T14:30:16.363Z,6.425
2019-06-26T14:33:16.234Z,6.913
2019-06-26T14:36:16.082Z,8.562
2019-06-26T14:39:15.822Z,7.363
2019-06-26T14:42:20.667Z,8.375
2019-06-26T14:45:15.433Z,8.200
2019-06-26T14:48:16.398Z,8.325
2019-06-26T14:51:16.259Z,7.425
2019-06-26T14:54:15.896Z,6.250
2019-06-26T14:57:15.627Z,11.850
2019-06-26T15:00:21.385Z,14.288
2019-06-26T15:03:15.631Z,10.713
2019-06-26T15:06:17.262Z,8.675
2019-06-26T15:09:16.054Z,8.575
2019-06-26T15:12:15.884Z,9.925
2019-06-26T15:15:16.025Z,7.725
2019-06-26T15:18:15.960Z,9.587
2019-06-26T15:21:15.941Z,12.775
2019-06-26T15:24:15.971Z,8.650
2019-06-26T15:27:16.396Z,9.513
2019-06-26T15:30:16.139Z,10.700
2019-06-26T15:33:16.079Z,11.737
2019-06-26T15:36:16.282Z,10.762
2019-06-26T15:39:16.495Z,8.988
2019-06-26T15:42:15.574Z,11.200
2019-06-26T15:45:15.900Z,9.863
2019-06-26T15:48:16.122Z,9.688
2019-06-26T15:51:17.409Z,12.425
2019-06-26T15:54:15.677Z,8.663
2019-06-26T15:57:15.544Z,11.050
2019-06-26T16:00:15.824Z,9.575
2019-06-26T16:03:16.037Z,10.025
2019-06-26T16:06:16.239Z,9.750
2019-06-26T16:09:15.735Z,13.537
2019-06-26T16:12:15.953Z,14.438
2019-06-26T16:15:16.250Z,11.525
2019-06-26T16:18:15.792Z,11.138
2019-06-26T16:21:15.657Z,6.638
2019-06-26T16:24:15.742Z,10.637
2019-06-26T16:27:15.992Z,12.975
2019-06-26T16:30:16.077Z,13.887
2019-06-26T16:33:15.915Z,9.350
2019-06-26T16:36:15.895Z,8.387
2019-06-26T16:39:16.050Z,10.200
2019-06-26T16:42:15.961Z,8.762
2019-06-26T16:45:16.355Z,9.412
2019-06-26T16:48:15.478Z,9.500
2019-06-26T16:51:15.505Z,11.312
2019-06-26T16:54:15.874Z,10.400
2019-06-26T16:57:20.900Z,12.625
2019-06-26T17:00:15.588Z,11.975
2019-06-26T17:03:15.887Z,7.775
2019-06-26T17:06:15.975Z,12.637
2019-06-26T17:09:15.584Z,9.150
2019-06-26T17:12:15.996Z,9.750
2019-06-26T17:15:15.937Z,10.500
2019-06-26T17:18:16.036Z,9.387
2019-06-26T17:21:16.068Z,11.900
2019-06-26T17:24:16.026Z,8.738
2019-06-26T17:27:15.895Z,8.200
2019-06-26T17:30:15.818Z,13.413
2019-06-26T17:33:15.835Z,8.612
2019-06-26T17:36:15.732Z,11.812
2019-06-26T17:39:15.663Z,14.387
2019-06-26T17:42:15.890Z,10.525
2019-06-26T17:45:16.234Z,11.725
2019-06-26T17:48:16.285Z,10.938
2019-06-26T17:51:15.501Z,12.275
2019-06-26T17:54:15.406Z,10.275
2019-06-26T17:57:15.680Z,9.887
2019-06-26T18:00:15.736Z,11.050
2019-06-26T18:03:15.655Z,11.600
2019-06-26T18:06:15.510Z,12.675
2019-06-26T18:09:15.340Z,11.713
2019-06-26T18:12:15.453Z,12.250
2019-06-26T18:15:15.731Z,10.212
2019-06-26T18:18:15.801Z,11.200
2019-06-26T18:21:15.629Z,9.562
2019-06-26T18:24:15.420Z,10.225
2019-06-26T18:27:16.547Z,9.000
2019-06-26T18:30:15.598Z,9.512
2019-06-26T18:33:17.201Z,8.963
2019-06-26T18:36:21.227Z,13.688
2019-06-26T18:39:15.464Z,7.225
2019-06-26T18:42:16.126Z,15.625
2019-06-26T18:45:21.516Z,11.537
2019-06-26T18:48:15.792Z,9.587
2019-06-26T18:51:16.089Z,9.075
2019-06-26T18:54:16.054Z,8.000
2019-06-26T18:57:18.065Z,9.025
2019-06-26T19:00:20.986Z,8.250
2019-06-26T19:03:16.007Z,8.625
2019-06-26T19:06:16.383Z,6.175
2019-06-26T19:09:15.937Z,9.962
2019-06-26T19:12:15.829Z,8.675
2019-06-26T19:15:21.577Z,11.212
2019-06-26T19:18:21.166Z,9.925
2019-06-26T19:21:15.361Z,10.200
2019-06-26T19:24:20.707Z,20.850
2019-06-26T19:27:15.790Z,11.300
2019-06-26T19:30:16.265Z,8.713
2019-06-26T19:33:15.588Z,10.100
2019-06-26T19:36:15.396Z,8.438
2019-06-26T19:39:21.700Z,6.450
2019-06-26T19:42:20.936Z,9.062
2019-06-26T19:45:15.684Z,6.100
2019-06-26T19:48:16.744Z,5.637
2019-06-26T19:51:16.908Z,5.075
2019-06-26T19:54:26.512Z,6.550
2019-06-26T19:57:15.478Z,7.250
2019-06-26T20:03:15.732Z,9.575
2019-06-26T20:06:16.043Z,6.613
2019-06-26T20:09:23.597Z,5.550
2019-06-26T20:12:21.753Z,8.325
2019-06-26T20:15:16.272Z,6.712
2019-06-26T20:18:15.988Z,7.675
2019-06-26T20:21:15.597Z,8.812
2019-06-26T20:24:16.071Z,9.900
2019-06-26T20:27:15.415Z,9.525
2019-06-26T20:30:15.778Z,7.450
2019-06-26T20:33:49.339Z,11.400
2019-06-26T20:36:20.186Z,7.737
2019-06-26T20:39:26.754Z,7.887
2019-06-26T20:42:30.718Z,9.725
2019-06-26T20:45:20.920Z,9.188
2019-06-26T20:48:15.727Z,8.775
2019-06-26T20:51:15.317Z,7.412
2019-06-26T20:54:15.968Z,11.850
2019-06-26T20:57:15.846Z,10.825
2019-06-26T21:00:15.503Z,9.575
2019-06-26T21:03:16.102Z,8.675
2019-06-26T21:06:15.654Z,10.088
2019-06-26T21:09:16.153Z,12.100
2019-06-26T21:12:15.930Z,10.762
2019-06-26T21:15:16.097Z,9.837
2019-06-26T21:18:15.760Z,9.363
2019-06-26T21:21:15.831Z,10.200
2019-06-26T21:24:15.920Z,10.500
2019-06-26T21:27:15.930Z,10.425
2019-06-26T21:30:15.095Z,8.025
2019-06-26T21:33:15.253Z,8.613
2019-06-26T21:36:15.036Z,9.012
2019-06-26T21:39:15.046Z,11.588
2019-06-26T21:42:15.829Z,10.500
2019-06-26T21:45:15.579Z,6.700
2019-06-26T21:48:15.281Z,9.700
2019-06-26T21:51:15.021Z,10.137
2019-06-26T21:54:15.594Z,8.900
2019-06-26T21:57:15.605Z,10.100
2019-06-26T22:00:15.336Z,9.225
2019-06-26T22:03:20.641Z,7.888
2019-06-26T22:06:15.793Z,9.825
2019-06-26T22:09:15.658Z,10.650
2019-06-26T22:12:15.593Z,6.825
2019-06-26T22:15:20.296Z,9.988
2019-06-26T22:18:15.505Z,9.425
2019-06-26T22:21:15.065Z,7.325
2019-06-26T22:24:15.744Z,12.250
2019-06-26T22:27:15.482Z,7.787
2019-06-26T22:30:15.326Z,7.062
2019-06-26T22:33:15.316Z,10.113
2019-06-26T22:36:15.304Z,6.912
2019-06-26T22:39:15.022Z,8.938
2019-06-26T22:42:15.581Z,9.312
2019-06-26T22:45:15.156Z,11.550
2019-06-26T22:48:20.844Z,8.613
2019-06-26T22:51:15.619Z,7.713
2019-06-26T22:54:19.670Z,5.000
2019-06-26T22:57:15.474Z,6.800
2019-06-26T23:00:15.006Z,6.763
2019-06-26T23:03:15.774Z,7.838
2019-06-26T23:06:15.576Z,7.512
2019-06-26T23:09:15.843Z,7.500
2019-06-26T23:12:15.340Z,6.662
2019-06-26T23:15:15.198Z,7.062
2019-06-26T23:18:15.904Z,7.225
2019-06-26T23:21:15.226Z,6.113
2019-06-26T23:24:15.343Z,5.400
2019-06-26T23:27:16.134Z,6.337
2019-06-26T23:30:15.920Z,5.638
2019-06-26T23:33:15.481Z,8.425
2019-06-26T23:36:14.964Z,6.137
2019-06-26T23:39:16.723Z,6.375
2019-06-26T23:42:15.359Z,5.700
2019-06-26T23:45:15.133Z,6.275
2019-06-26T23:48:15.850Z,4.388
2019-06-26T23:51:15.394Z,4.600
2019-06-26T23:54:14.934Z,5.900
2019-06-26T23:57:15.315Z,6.038
